Time;durP1;ratioP1;P1;durP2;ratioP2;P2;SDS_P1;SDS_P2;PMS_P1;PMS_P2;Temp;Humidity;BMP_temperature;BMP_pressure;BME280_temperature;BME280_humidity;BME280_pressure;Samples;Min_cycle;Max_cycle;Signal;HPM_P1;HPM_P2
2021/01/27 00:00:14;;;;;;;4.60;3.80;;;;;;;;;;5082513;28;20227;-68
2021/01/27 00:02:39;;;;;;;7.67;4.17;;;;;;;;;;5071178;28;20208;-68
2021/01/27 00:05:05;;;;;;;6.07;4.03;;;;;;;;;;5071472;28;20200;-68
2021/01/27 00:07:31;;;;;;;5.63;3.53;;;;;;;;;;5079102;28;20203;-68
2021/01/27 00:09:56;;;;;;;6.53;3.83;;;;;;;;;;5085672;28;20187;-68
2021/01/27 00:12:21;;;;;;;4.90;3.80;;;;;;;;;;5079460;28;20191;-68
2021/01/27 00:14:46;;;;;;;4.73;3.57;;;;;;;;;;5078380;28;20197;-69
2021/01/27 00:17:11;;;;;;;5.27;4.00;;;;;;;;;;5076209;28;20201;-69
2021/01/27 00:19:37;;;;;;;6.80;4.10;;;;;;;;;;5077347;28;20680;-68
2021/01/27 00:22:02;;;;;;;8.67;4.50;;;;;;;;;;5079726;28;20168;-68
2021/01/27 00:24:27;;;;;;;7.67;3.77;;;;;;;;;;5080967;28;20192;-69
2021/01/27 00:26:52;;;;;;;5.30;3.87;;;;;;;;;;5079669;28;20187;-68
2021/01/27 00:29:17;;;;;;;8.27;4.70;;;;;;;;;;5078531;28;20558;-68
2021/01/27 00:31:43;;;;;;;6.17;4.77;;;;;;;;;;5074253;28;20605;-68
2021/01/27 00:34:08;;;;;;;6.57;4.70;;;;;;;;;;5078703;28;20194;-68
2021/01/27 00:36:33;;;;;;;9.40;5.13;;;;;;;;;;5075937;28;20898;-68
2021/01/27 00:38:58;;;;;;;6.97;5.13;;;;;;;;;;5081480;28;20233;-68
2021/01/27 00:41:24;;;;;;;6.67;5.60;;;;;;;;;;5082051;28;20172;-68
2021/01/27 00:43:49;;;;;;;9.57;5.40;;;;;;;;;;5082810;28;20272;-68
2021/01/27 00:46:14;;;;;;;7.67;5.63;;;;;;;;;;5081906;28;20570;-68
2021/01/27 00:48:39;;;;;;;7.33;6.03;;;;;;;;;;5085977;28;20187;-68
2021/01/27 00:51:05;;;;;;;5.70;5.10;;;;;;;;;;5078089;28;20550;-68
2021/01/27 00:53:30;;;;;;;8.13;6.07;;;;;;;;;;5083863;28;20188;-68
2021/01/27 00:55:55;;;;;;;6.70;5.30;;;;;;;;;;5079987;28;20576;-68
2021/01/27 00:58:20;;;;;;;5.97;5.37;;;;;;;;;;5090169;28;20199;-68
2021/01/27 01:00:45;;;;;;;7.10;5.30;;;;;;;;;;5085678;28;20196;-68
2021/01/27 01:03:11;;;;;;;8.10;5.17;;;;;;;;;;5088427;28;20695;-68
2021/01/27 01:05:38;;;;;;;9.13;5.73;;;;;;;;;;5081387;28;20226;-68
2021/01/27 01:08:03;;;;;;;9.20;5.60;;;;;;;;;;5081130;28;20180;-68
2021/01/27 01:10:33;;;;;;;8.57;5.60;;;;;;;;;;5085915;28;20523;-68
2021/01/27 01:12:59;;;;;;;10.30;6.23;;;;;;;;;;5083702;28;20299;-68
2021/01/27 01:15:25;;;;;;;9.30;6.13;;;;;;;;;;5077657;28;20666;-68
2021/01/27 01:17:50;;;;;;;9.40;6.40;;;;;;;;;;5076274;28;20269;-68
2021/01/27 01:20:16;;;;;;;8.43;6.73;;;;;;;;;;5081181;28;20169;-68
2021/01/27 01:22:42;;;;;;;9.90;6.57;;;;;;;;;;5082333;28;20274;-68
2021/01/27 01:25:08;;;;;;;9.13;6.57;;;;;;;;;;5080654;28;20550;-68
2021/01/27 01:27:33;;;;;;;9.33;6.30;;;;;;;;;;5078787;28;20638;-68
2021/01/27 01:29:58;;;;;;;6.80;6.10;;;;;;;;;;5076926;28;20660;-68
2021/01/27 01:32:23;;;;;;;8.23;6.13;;;;;;;;;;5074808;28;20176;-68
2021/01/27 01:34:48;;;;;;;10.00;6.20;;;;;;;;;;5082660;28;20232;-69
2021/01/27 01:37:13;;;;;;;8.15;6.28;;;;;;;;;;5075702;28;20211;-68
2021/01/27 01:39:39;;;;;;;7.23;6.10;;;;;;;;;;5081922;28;20202;-69
2021/01/27 01:42:04;;;;;;;9.53;6.93;;;;;;;;;;5080696;28;20169;-68
2021/01/27 01:44:29;;;;;;;8.97;6.27;;;;;;;;;;5082061;28;20287;-68
2021/01/27 01:46:54;;;;;;;7.43;6.47;;;;;;;;;;5077993;28;20327;-69
2021/01/27 01:49:20;;;;;;;8.23;6.97;;;;;;;;;;5077505;28;20557;-69
2021/01/27 01:51:50;;;;;;;8.70;7.10;;;;;;;;;;5076281;28;20180;-67
2021/01/27 01:54:36;;;;;;;8.80;6.73;;;;;;;;;;5088041;28;20566;-68
2021/01/27 01:57:03;;;;;;;8.17;6.60;;;;;;;;;;5071159;28;20212;-67
2021/01/27 01:59:31;;;;;;;9.17;7.13;;;;;;;;;;5070302;28;20181;-68
2021/01/27 02:02:01;;;;;;;8.13;6.97;;;;;;;;;;5073311;28;20177;-68
2021/01/27 02:04:31;;;;;;;8.90;7.60;;;;;;;;;;5077131;28;20204;-68
2021/01/27 02:06:57;;;;;;;8.30;6.70;;;;;;;;;;5081063;28;20177;-68
2021/01/27 02:09:22;;;;;;;9.80;6.77;;;;;;;;;;5072535;28;20207;-68
2021/01/27 02:11:57;;;;;;;9.97;6.97;;;;;;;;;;5071791;28;20185;-68
2021/01/27 02:14:40;;;;;;;11.63;7.00;;;;;;;;;;5076561;28;20282;-68
2021/01/27 02:17:26;;;;;;;9.23;6.57;;;;;;;;;;5080625;28;20206;-67
2021/01/27 02:20:00;;;;;;;9.60;6.97;;;;;;;;;;5072119;28;20181;-68
2021/01/27 02:22:25;;;;;;;7.43;6.40;;;;;;;;;;5083528;28;20195;-68
2021/01/27 02:25:11;;;;;;;6.65;5.55;;;;;;;;;;5079628;28;20189;-68
2021/01/27 02:27:38;;;;;;;9.70;6.80;;;;;;;;;;5086051;28;20184;-68
2021/01/27 02:30:12;;;;;;;10.23;6.07;;;;;;;;;;5088688;28;20675;-68
2021/01/27 02:32:46;;;;;;;6.27;5.17;;;;;;;;;;5084025;28;20185;-68
2021/01/27 02:35:15;;;;;;;7.90;6.27;;;;;;;;;;5086938;28;20173;-68
2021/01/27 02:37:44;;;;;;;6.87;5.30;;;;;;;;;;5084594;28;20196;-69
2021/01/27 02:40:30;;;;;;;7.93;6.00;;;;;;;;;;5081057;28;20190;-68
2021/01/27 02:42:58;;;;;;;8.13;5.93;;;;;;;;;;5089119;28;20200;-68
2021/01/27 02:45:26;;;;;;;5.30;4.73;;;;;;;;;;5088552;28;20185;-69
2021/01/27 02:47:51;;;;;;;6.40;5.57;;;;;;;;;;5087755;28;20274;-68
2021/01/27 02:50:35;;;;;;;7.57;5.15;;;;;;;;;;5082991;28;20176;-69
2021/01/27 02:53:04;;;;;;;7.13;6.43;;;;;;;;;;5084017;28;20280;-68
2021/01/27 02:55:32;;;;;;;6.23;5.60;;;;;;;;;;5085326;28;20570;-68
2021/01/27 02:58:06;;;;;;;6.27;5.63;;;;;;;;;;5085280;28;20202;-68
2021/01/27 03:00:34;;;;;;;8.33;5.97;;;;;;;;;;5076555;28;20180;-68
2021/01/27 03:03:19;;;;;;;7.73;5.60;;;;;;;;;;5082700;28;20207;-67
2021/01/27 03:05:54;;;;;;;6.33;5.40;;;;;;;;;;5083650;28;20185;-69
2021/01/27 03:08:21;;;;;;;9.57;6.30;;;;;;;;;;5075733;28;20237;-68
2021/01/27 03:10:57;;;;;;;5.90;5.27;;;;;;;;;;5079444;28;20232;-68
2021/01/27 03:13:22;;;;;;;6.80;5.70;;;;;;;;;;5080026;28;20557;-68
2021/01/27 03:15:48;;;;;;;8.77;6.27;;;;;;;;;;5086177;28;20179;-68
2021/01/27 03:18:15;;;;;;;7.00;5.77;;;;;;;;;;5085673;28;20201;-69
2021/01/27 03:20:41;;;;;;;6.30;5.70;;;;;;;;;;5084742;28;20212;-68
2021/01/27 03:23:19;;;;;;;6.93;6.07;;;;;;;;;;5084299;28;20197;-68
2021/01/27 03:25:48;;;;;;;9.00;6.63;;;;;;;;;;5081894;28;20671;-69
2021/01/27 03:28:25;;;;;;;8.43;6.17;;;;;;;;;;5088321;28;20241;-68
2021/01/27 03:30:50;;;;;;;7.23;6.53;;;;;;;;;;5080501;28;20181;-68
2021/01/27 03:33:23;;;;;;;7.10;6.30;;;;;;;;;;5088129;28;20711;-68
2021/01/27 03:35:50;;;;;;;8.30;6.33;;;;;;;;;;5086519;28;20208;-68
2021/01/27 03:38:25;;;;;;;8.17;6.13;;;;;;;;;;5086479;28;20285;-68
2021/01/27 03:40:52;;;;;;;7.03;6.33;;;;;;;;;;5080178;28;20319;-68
2021/01/27 03:43:28;;;;;;;8.70;6.40;;;;;;;;;;5081819;28;20262;-68
2021/01/27 03:46:07;;;;;;;6.90;5.80;;;;;;;;;;5074546;28;20654;-68
2021/01/27 03:48:36;;;;;;;7.77;6.53;;;;;;;;;;5092191;28;20189;-68
2021/01/27 03:51:01;;;;;;;6.97;6.13;;;;;;;;;;5083481;28;20727;-68
2021/01/27 03:53:27;;;;;;;10.20;6.47;;;;;;;;;;5080337;28;20239;-68
2021/01/27 03:55:56;;;;;;;7.73;6.07;;;;;;;;;;5087418;28;20172;-68
2021/01/27 03:58:23;;;;;;;10.37;5.83;;;;;;;;;;5086676;28;20327;-68
2021/01/27 04:00:50;;;;;;;5.90;5.27;;;;;;;;;;5082174;28;20188;-68
2021/01/27 04:03:24;;;;;;;6.83;5.87;;;;;;;;;;5083748;28;20199;-68
2021/01/27 04:05:49;;;;;;;6.73;6.03;;;;;;;;;;5081586;28;20701;-68
2021/01/27 04:08:15;;;;;;;6.67;5.97;;;;;;;;;;5078521;28;20267;-68
2021/01/27 04:10:40;;;;;;;8.00;6.00;;;;;;;;;;5081219;28;20181;-68
2021/01/27 04:13:06;;;;;;;6.63;5.97;;;;;;;;;;5084438;28;20481;-73
2021/01/27 04:15:31;;;;;;;7.93;6.27;;;;;;;;;;5077069;28;20188;-68
2021/01/27 04:17:56;;;;;;;6.07;5.50;;;;;;;;;;5078518;28;20611;-68
2021/01/27 04:20:22;;;;;;;6.03;5.43;;;;;;;;;;5077856;28;20634;-68
2021/01/27 04:22:47;;;;;;;7.63;5.40;;;;;;;;;;5077910;28;20224;-68
2021/01/27 04:25:13;;;;;;;6.90;5.50;;;;;;;;;;5080010;28;20226;-68
2021/01/27 04:27:38;;;;;;;7.70;5.47;;;;;;;;;;5084248;28;20180;-68
2021/01/27 04:30:05;;;;;;;8.37;5.87;;;;;;;;;;5077913;28;20200;-67
2021/01/27 04:32:30;;;;;;;7.17;6.03;;;;;;;;;;5086175;28;20192;-68
2021/01/27 04:34:55;;;;;;;8.17;5.53;;;;;;;;;;5078938;28;20200;-69
2021/01/27 04:37:20;;;;;;;7.47;6.47;;;;;;;;;;5081682;28;20689;-68
2021/01/27 04:39:45;;;;;;;8.23;6.20;;;;;;;;;;5081277;28;20184;-68
2021/01/27 04:42:10;;;;;;;8.07;6.37;;;;;;;;;;5085066;28;20651;-68
2021/01/27 04:44:36;;;;;;;7.70;6.90;;;;;;;;;;5082896;28;20194;-68
2021/01/27 04:47:06;;;;;;;7.17;6.47;;;;;;;;;;5087354;28;20182;-68
2021/01/27 04:49:33;;;;;;;7.50;6.10;;;;;;;;;;5087072;28;20551;-68
2021/01/27 04:52:05;;;;;;;7.57;6.83;;;;;;;;;;5088397;28;20184;-68
2021/01/27 04:54:48;;;;;;;7.07;6.30;;;;;;;;;;5095998;28;20192;-68
2021/01/27 04:57:32;;;;;;;7.30;6.60;;;;;;;;;;5082395;28;20257;-68
2021/01/27 05:00:10;;;;;;;7.60;6.83;;;;;;;;;;5081543;28;20195;-68
2021/01/27 05:02:54;;;;;;;8.00;7.20;;;;;;;;;;5083451;28;20190;-68
2021/01/27 05:05:37;;;;;;;11.37;6.43;;;;;;;;;;5082901;28;20690;-68
2021/01/27 05:08:17;;;;;;;7.93;6.33;;;;;;;;;;5078746;28;20263;-68
2021/01/27 05:10:57;;;;;;;8.10;7.30;;;;;;;;;;5075946;28;20183;-68
2021/01/27 05:13:28;;;;;;;12.47;7.07;;;;;;;;;;5080640;28;20749;-68
2021/01/27 05:15:54;;;;;;;7.37;6.63;;;;;;;;;;5081348;28;20575;-68
2021/01/27 05:18:20;;;;;;;9.40;7.73;;;;;;;;;;5085661;28;20189;-68
2021/01/27 05:20:47;;;;;;;8.57;7.23;;;;;;;;;;5074985;28;20181;-68
2021/01/27 05:23:12;;;;;;;8.50;7.63;;;;;;;;;;5084399;28;20196;-68
2021/01/27 05:25:42;;;;;;;8.23;7.37;;;;;;;;;;5077487;28;20188;-68
2021/01/27 05:28:13;;;;;;;9.40;7.67;;;;;;;;;;5082875;28;20176;-68
2021/01/27 05:30:44;;;;;;;9.00;7.90;;;;;;;;;;5079497;28;20185;-68
2021/01/27 05:33:10;;;;;;;8.67;7.87;;;;;;;;;;5080515;28;20440;-68
2021/01/27 05:35:36;;;;;;;9.60;8.23;;;;;;;;;;5079815;28;20196;-67
2021/01/27 05:38:17;;;;;;;8.43;7.37;;;;;;;;;;5079424;28;20212;-68
2021/01/27 05:40:43;;;;;;;7.93;7.13;;;;;;;;;;5073472;28;20606;-68
2021/01/27 05:43:13;;;;;;;9.37;8.47;;;;;;;;;;5078304;28;20284;-68
2021/01/27 05:45:45;;;;;;;9.63;7.80;;;;;;;;;;5074099;28;20181;-68
2021/01/27 05:48:20;;;;;;;9.83;8.00;;;;;;;;;;5078884;28;20219;-67
2021/01/27 05:50:45;;;;;;;8.83;7.30;;;;;;;;;;5084997;28;20187;-68
2021/01/27 05:53:10;;;;;;;9.00;8.10;;;;;;;;;;5082217;28;20193;-68
2021/01/27 05:55:35;;;;;;;9.27;8.27;;;;;;;;;;5094729;28;20599;-68
2021/01/27 05:58:01;;;;;;;8.67;7.83;;;;;;;;;;5077243;28;20243;-68
2021/01/27 06:00:28;;;;;;;8.70;7.77;;;;;;;;;;5084155;28;20200;-68
2021/01/27 06:02:54;;;;;;;8.73;7.83;;;;;;;;;;5077732;28;20287;-68
2021/01/27 06:05:36;;;;;;;10.17;7.93;;;;;;;;;;5083730;28;20177;-68
2021/01/27 06:08:12;;;;;;;8.90;8.00;;;;;;;;;;5083619;28;20672;-68
2021/01/27 06:10:38;;;;;;;9.47;8.47;;;;;;;;;;5088371;28;20194;-68
2021/01/27 06:13:15;;;;;;;9.33;8.30;;;;;;;;;;5089693;28;20204;-68
2021/01/27 06:15:40;;;;;;;10.43;8.47;;;;;;;;;;5080494;28;20188;-68
2021/01/27 06:18:17;;;;;;;8.30;7.47;;;;;;;;;;5086360;28;20205;-68
2021/01/27 06:20:43;;;;;;;7.57;6.80;;;;;;;;;;5082940;28;20252;-68
2021/01/27 06:23:27;;;;;;;7.77;6.90;;;;;;;;;;5086829;28;20333;-68
2021/01/27 06:25:52;;;;;;;8.37;7.57;;;;;;;;;;5083975;28;20256;-68
2021/01/27 06:28:17;;;;;;;8.97;8.07;;;;;;;;;;5087209;28;20259;-68
2021/01/27 06:30:46;;;;;;;8.77;7.88;;;;;;;;;;5082047;28;20176;-68
2021/01/27 06:33:11;;;;;;;7.83;7.03;;;;;;;;;;5089543;28;20333;-68
2021/01/27 06:35:39;;;;;;;7.80;7.00;;;;;;;;;;5088422;28;20259;-68
2021/01/27 06:38:16;;;;;;;8.50;7.60;;;;;;;;;;5081539;28;20200;-68
2021/01/27 06:41:05;;;;;;;9.73;8.30;;;;;;;;;;5079376;28;20637;-68
2021/01/27 06:43:41;;;;;;;7.80;7.00;;;;;;;;;;5076604;28;20740;-68
2021/01/27 06:46:29;;;;;;;7.83;7.03;;;;;;;;;;5082347;28;20235;-68
2021/01/27 06:49:00;;;;;;;10.30;6.87;;;;;;;;;;5084740;28;20241;-68
2021/01/27 06:51:46;;;;;;;7.30;6.57;;;;;;;;;;5083964;28;20180;-68
2021/01/27 06:54:11;;;;;;;9.17;6.77;;;;;;;;;;5089484;28;20269;-69
2021/01/27 06:56:39;;;;;;;7.60;6.80;;;;;;;;;;5078563;28;20180;-68
2021/01/27 06:59:22;;;;;;;8.77;7.33;;;;;;;;;;5076941;28;20272;-68
2021/01/27 07:02:19;;;;;;;8.60;7.70;;;;;;;;;;5074947;28;20563;-69
2021/01/27 07:05:02;;;;;;;8.43;7.10;;;;;;;;;;5086171;28;20202;-68
2021/01/27 07:07:46;;;;;;;8.50;7.37;;;;;;;;;;5071151;28;20591;-68
2021/01/27 07:10:11;;;;;;;9.53;7.97;;;;;;;;;;5073797;28;20172;-68
2021/01/27 07:12:41;;;;;;;9.85;8.38;;;;;;;;;;5072681;28;20266;-68
2021/01/27 07:15:23;;;;;;;8.80;7.90;;;;;;;;;;5070974;28;20192;-68
2021/01/27 07:18:00;;;;;;;10.67;8.40;;;;;;;;;;5071470;28;20237;-68
2021/01/27 07:20:25;;;;;;;10.73;9.20;;;;;;;;;;5070542;28;20181;-68
2021/01/27 07:23:04;;;;;;;11.07;9.20;;;;;;;;;;5074654;28;20992;-69
2021/01/27 07:25:42;;;;;;;9.83;8.57;;;;;;;;;;5071302;28;20317;-68
2021/01/27 07:28:24;;;;;;;11.43;9.50;;;;;;;;;;5072897;28;20180;-68
2021/01/27 07:30:52;;;;;;;12.60;10.07;;;;;;;;;;5074443;28;20275;-68
2021/01/27 07:33:20;;;;;;;14.23;11.00;;;;;;;;;;5072759;28;20802;-68
2021/01/27 07:35:57;;;;;;;12.77;10.00;;;;;;;;;;5073864;28;20569;-68
2021/01/27 07:38:25;;;;;;;13.03;11.17;;;;;;;;;;5072460;28;20761;-68
2021/01/27 07:40:55;;;;;;;15.03;11.17;;;;;;;;;;5075420;28;20638;-69
2021/01/27 07:43:33;;;;;;;13.43;11.17;;;;;;;;;;5076446;28;20631;-68
2021/01/27 07:45:59;;;;;;;14.13;11.70;;;;;;;;;;5075124;28;20469;-68
2021/01/27 07:48:45;;;;;;;14.73;11.53;;;;;;;;;;5075034;28;20182;-68
2021/01/27 07:51:13;;;;;;;15.40;11.87;;;;;;;;;;5071071;28;20235;-68
2021/01/27 07:53:43;;;;;;;16.73;13.10;;;;;;;;;;5072642;28;20265;-68
2021/01/27 07:56:15;;;;;;;15.70;12.47;;;;;;;;;;5074854;28;20192;-68
2021/01/27 07:58:43;;;;;;;16.07;13.17;;;;;;;;;;5071962;28;20207;-68
2021/01/27 08:01:13;;;;;;;17.47;13.23;;;;;;;;;;5072312;28;20547;-68
2021/01/27 08:03:42;;;;;;;20.33;13.80;;;;;;;;;;5070224;28;20199;-68
2021/01/27 08:06:12;;;;;;;17.00;13.57;;;;;;;;;;5072809;28;20691;-68
2021/01/27 08:08:55;;;;;;;16.70;13.00;;;;;;;;;;5068797;28;20618;-68
2021/01/27 08:11:26;;;;;;;16.97;13.87;;;;;;;;;;5070815;28;20235;-68
2021/01/27 08:13:52;;;;;;;16.37;13.80;;;;;;;;;;5074367;28;20211;-68
2021/01/27 08:16:37;;;;;;;16.97;13.33;;;;;;;;;;5072697;28;20196;-68
2021/01/27 08:19:11;;;;;;;18.50;14.03;;;;;;;;;;5071590;28;20232;-68
2021/01/27 08:21:51;;;;;;;17.57;13.63;;;;;;;;;;5071147;28;20186;-68
2021/01/27 08:24:37;;;;;;;19.17;13.80;;;;;;;;;;5068666;28;20239;-67
2021/01/27 08:27:14;;;;;;;17.27;13.20;;;;;;;;;;5068143;28;20238;-67
2021/01/27 08:29:45;;;;;;;25.90;15.77;;;;;;;;;;5073488;28;20175;-68
2021/01/27 08:32:29;;;;;;;19.93;14.70;;;;;;;;;;5070660;28;20185;-67
2021/01/27 08:34:57;;;;;;;18.70;14.53;;;;;;;;;;5073177;28;20212;-68
2021/01/27 08:37:27;;;;;;;17.30;13.67;;;;;;;;;;5071509;28;20201;-68
2021/01/27 08:40:11;;;;;;;20.60;14.90;;;;;;;;;;5071140;28;20567;-68
2021/01/27 08:42:41;;;;;;;20.87;14.57;;;;;;;;;;5069871;28;20635;-68
2021/01/27 08:45:26;;;;;;;19.00;14.57;;;;;;;;;;5074192;28;20181;-68
2021/01/27 08:47:52;;;;;;;20.20;14.83;;;;;;;;;;5069435;28;20180;-68
2021/01/27 08:50:36;;;;;;;20.73;15.13;;;;;;;;;;5071181;28;20245;-68
2021/01/27 08:53:08;;;;;;;21.47;14.63;;;;;;;;;;5069814;28;20208;-68
2021/01/27 08:55:33;;;;;;;23.07;15.87;;;;;;;;;;5072741;28;20195;-68
2021/01/27 08:58:17;;;;;;;21.50;14.93;;;;;;;;;;5071571;28;21256;-68
2021/01/27 09:00:43;;;;;;;19.63;15.17;;;;;;;;;;5070834;28;20210;-68
2021/01/27 09:03:08;;;;;;;21.23;15.90;;;;;;;;;;5068975;28;20239;-68
2021/01/27 09:05:33;;;;;;;22.67;16.50;;;;;;;;;;5067906;28;20208;-68
2021/01/27 09:08:24;;;;;;;19.33;15.17;;;;;;;;;;5066927;28;20226;-68
2021/01/27 09:10:54;;;;;;;21.13;15.27;;;;;;;;;;5069226;28;20220;-68
2021/01/27 09:13:38;;;;;;;19.10;14.60;;;;;;;;;;5069177;28;20208;-68
2021/01/27 09:16:14;;;;;;;21.83;15.13;;;;;;;;;;5069127;28;20192;-68
2021/01/27 09:18:39;;;;;;;23.40;15.63;;;;;;;;;;5069008;28;20207;-68
2021/01/27 09:21:11;;;;;;;19.93;15.20;;;;;;;;;;5066912;28;20264;-68
2021/01/27 09:23:36;;;;;;;22.10;15.97;;;;;;;;;;5068106;28;20677;-68
2021/01/27 09:26:11;;;;;;;22.00;14.63;;;;;;;;;;5066731;28;20185;-67
2021/01/27 09:28:36;;;;;;;21.93;16.00;;;;;;;;;;5073040;28;20328;-68
2021/01/27 09:31:10;;;;;;;22.23;15.77;;;;;;;;;;5077808;28;20180;-67
2021/01/27 09:33:35;;;;;;;21.23;14.90;;;;;;;;;;5070235;28;20215;-68
2021/01/27 09:36:10;;;;;;;25.37;17.10;;;;;;;;;;5067219;28;20172;-68
2021/01/27 09:38:35;;;;;;;22.60;16.03;;;;;;;;;;5075872;28;20212;-68
2021/01/27 09:41:05;;;;;;;23.47;15.37;;;;;;;;;;5070083;28;20184;-68
2021/01/27 09:43:36;;;;;;;27.30;16.50;;;;;;;;;;5069700;28;20201;-68
2021/01/27 09:46:15;;;;;;;28.10;17.90;;;;;;;;;;5071329;28;20196;-68
2021/01/27 09:48:41;;;;;;;22.27;16.00;;;;;;;;;;5069032;28;20249;-68
2021/01/27 09:51:06;;;;;;;22.57;15.87;;;;;;;;;;5071648;28;20253;-68
2021/01/27 09:53:34;;;;;;;26.17;16.87;;;;;;;;;;5080625;28;20233;-68
2021/01/27 09:56:00;;;;;;;23.80;16.33;;;;;;;;;;5074505;28;20677;-68
2021/01/27 09:58:26;;;;;;;22.90;16.30;;;;;;;;;;5072118;28;20596;-68
2021/01/27 10:00:58;;;;;;;23.90;16.30;;;;;;;;;;5069238;28;20191;-68
2021/01/27 10:03:32;;;;;;;24.90;17.00;;;;;;;;;;5074777;28;20256;-67
2021/01/27 10:05:58;;;;;;;25.10;17.90;;;;;;;;;;5076071;28;20176;-68
2021/01/27 10:08:31;;;;;;;23.07;17.13;;;;;;;;;;5076524;28;20211;-68
2021/01/27 10:11:03;;;;;;;23.93;16.60;;;;;;;;;;5069186;28;20230;-69
2021/01/27 10:13:32;;;;;;;25.77;17.73;;;;;;;;;;5072690;28;20204;-68
2021/01/27 10:16:05;;;;;;;22.03;16.37;;;;;;;;;;5073034;28;20200;-69
2021/01/27 10:18:32;;;;;;;25.97;16.63;;;;;;;;;;5074444;28;20567;-68
2021/01/27 10:21:05;;;;;;;23.60;17.07;;;;;;;;;;5073487;28;20180;-69
2021/01/27 10:23:34;;;;;;;27.73;17.53;;;;;;;;;;5071499;28;20573;-68
2021/01/27 10:26:18;;;;;;;26.27;15.73;;;;;;;;;;5071873;28;20177;-69
2021/01/27 10:28:43;;;;;;;25.57;16.63;;;;;;;;;;5067297;28;20557;-67
2021/01/27 10:31:08;;;;;;;24.47;16.97;;;;;;;;;;5072144;28;20185;-68
2021/01/27 10:33:43;;;;;;;25.30;17.63;;;;;;;;;;5070694;28;20262;-68
2021/01/27 10:36:27;;;;;;;24.43;16.17;;;;;;;;;;5070697;28;20181;-68
2021/01/27 10:39:11;;;;;;;24.13;17.10;;;;;;;;;;5073203;28;20206;-68
2021/01/27 10:41:36;;;;;;;27.23;17.13;;;;;;;;;;5074109;28;20183;-68
2021/01/27 10:44:20;;;;;;;28.63;17.60;;;;;;;;;;5073029;28;20197;-68
2021/01/27 10:46:45;;;;;;;24.33;16.37;;;;;;;;;;5074672;28;20242;-69
2021/01/27 10:49:10;;;;;;;25.43;17.43;;;;;;;;;;5083313;28;20288;-68
2021/01/27 10:51:35;;;;;;;27.80;16.90;;;;;;;;;;5081602;28;20272;-68
2021/01/27 10:54:01;;;;;;;23.13;16.73;;;;;;;;;;5083912;28;20283;-68
2021/01/27 10:56:26;;;;;;;25.00;16.87;;;;;;;;;;5080940;28;20185;-69
2021/01/27 10:58:51;;;;;;;26.70;17.40;;;;;;;;;;5074124;28;20207;-72
2021/01/27 11:01:16;;;;;;;26.10;17.17;;;;;;;;;;5075920;28;20216;-68
2021/01/27 11:03:42;;;;;;;24.97;16.50;;;;;;;;;;5080132;28;20587;-68
2021/01/27 11:06:07;;;;;;;27.90;17.07;;;;;;;;;;5076365;28;20181;-68
2021/01/27 11:08:33;;;;;;;28.13;18.70;;;;;;;;;;5074401;28;20644;-69
2021/01/27 11:10:59;;;;;;;24.50;17.77;;;;;;;;;;5073304;28;20302;-69
2021/01/27 11:13:24;;;;;;;26.90;17.40;;;;;;;;;;5080229;28;20208;-68
2021/01/27 11:15:50;;;;;;;29.30;17.73;;;;;;;;;;5076357;28;20286;-69
2021/01/27 11:18:15;;;;;;;24.40;17.20;;;;;;;;;;5079370;28;20846;-68
2021/01/27 11:20:41;;;;;;;23.13;17.83;;;;;;;;;;5072058;28;20324;-68
2021/01/27 11:23:06;;;;;;;27.03;17.70;;;;;;;;;;5079011;28;20212;-69
2021/01/27 11:25:31;;;;;;;24.00;17.17;;;;;;;;;;5078116;28;20184;-68
2021/01/27 11:27:56;;;;;;;27.43;17.40;;;;;;;;;;5072334;28;20184;-69
2021/01/27 11:30:23;;;;;;;27.47;17.13;;;;;;;;;;5079405;28;20187;-69
2021/01/27 11:32:48;;;;;;;25.90;17.33;;;;;;;;;;5072734;28;20557;-69
2021/01/27 11:35:14;;;;;;;30.17;16.77;;;;;;;;;;5074432;28;20204;-68
2021/01/27 11:37:39;;;;;;;25.50;17.70;;;;;;;;;;5071314;28;20243;-69
2021/01/27 11:40:05;;;;;;;23.50;17.03;;;;;;;;;;5072861;28;20226;-68
2021/01/27 11:42:30;;;;;;;19.97;14.90;;;;;;;;;;5073267;28;20172;-68
2021/01/27 11:44:55;;;;;;;25.37;17.47;;;;;;;;;;5074138;28;20253;-68
2021/01/27 11:47:21;;;;;;;24.07;16.63;;;;;;;;;;5075152;28;20199;-68
2021/01/27 11:49:46;;;;;;;22.27;16.70;;;;;;;;;;5071928;28;20184;-67
2021/01/27 11:52:12;;;;;;;24.60;16.70;;;;;;;;;;5075278;28;20597;-68
2021/01/27 11:54:40;;;;;;;24.33;16.53;;;;;;;;;;5077318;28;20592;-68
2021/01/27 11:57:06;;;;;;;23.77;15.43;;;;;;;;;;5077417;28;20277;-68
2021/01/27 11:59:31;;;;;;;23.27;16.73;;;;;;;;;;5081434;28;20990;-68
2021/01/27 12:01:56;;;;;;;24.07;16.20;;;;;;;;;;5076960;28;20184;-69
2021/01/27 12:04:21;;;;;;;22.10;16.33;;;;;;;;;;5074706;28;20201;-69
2021/01/27 12:06:47;;;;;;;24.23;16.47;;;;;;;;;;5072711;28;20189;-68
2021/01/27 12:09:12;;;;;;;23.53;17.10;;;;;;;;;;5075964;28;20262;-68
2021/01/27 12:11:37;;;;;;;23.57;15.67;;;;;;;;;;5074901;28;20200;-68
2021/01/27 12:14:02;;;;;;;27.43;17.17;;;;;;;;;;5072324;28;20263;-68
2021/01/27 12:16:27;;;;;;;26.00;16.87;;;;;;;;;;5073450;28;20203;-69
2021/01/27 12:18:52;;;;;;;24.27;16.00;;;;;;;;;;5076176;28;20212;-68
2021/01/27 12:21:18;;;;;;;23.37;17.00;;;;;;;;;;5073369;28;20234;-69
2021/01/27 12:23:43;;;;;;;22.70;16.53;;;;;;;;;;5074709;28;20193;-68
2021/01/27 12:26:08;;;;;;;24.30;17.53;;;;;;;;;;5072819;28;20547;-68
2021/01/27 12:28:33;;;;;;;31.60;17.37;;;;;;;;;;5069522;28;20189;-68
2021/01/27 12:30:58;;;;;;;23.97;17.07;;;;;;;;;;5075230;28;20566;-68
2021/01/27 12:33:25;;;;;;;26.37;17.87;;;;;;;;;;5076410;28;20200;-68
2021/01/27 12:35:50;;;;;;;25.60;17.10;;;;;;;;;;5082558;28;20180;-68
2021/01/27 12:38:15;;;;;;;31.70;17.47;;;;;;;;;;5081134;28;20294;-68
2021/01/27 12:40:40;;;;;;;32.53;18.47;;;;;;;;;;5074771;28;20658;-69
2021/01/27 12:43:06;;;;;;;29.33;18.50;;;;;;;;;;5074453;28;20197;-69
2021/01/27 12:45:31;;;;;;;31.50;19.03;;;;;;;;;;5079348;28;20245;-68
2021/01/27 12:47:56;;;;;;;32.60;18.03;;;;;;;;;;5074479;28;20184;-68
2021/01/27 12:50:22;;;;;;;25.70;16.60;;;;;;;;;;5076351;28;20208;-68
2021/01/27 12:52:47;;;;;;;27.53;18.13;;;;;;;;;;5074895;28;20268;-69
2021/01/27 12:55:14;;;;;;;23.53;15.57;;;;;;;;;;5075270;28;20184;-68
2021/01/27 12:57:42;;;;;;;23.33;17.67;;;;;;;;;;5074733;28;20200;-68
2021/01/27 13:00:08;;;;;;;24.90;16.53;;;;;;;;;;5072409;28;20176;-67
2021/01/27 13:02:33;;;;;;;26.20;16.93;;;;;;;;;;5075111;28;20173;-68
2021/01/27 13:04:59;;;;;;;29.83;17.77;;;;;;;;;;5072822;28;20653;-68
2021/01/27 13:07:24;;;;;;;27.57;18.37;;;;;;;;;;5073000;28;20183;-68
2021/01/27 13:09:49;;;;;;;29.43;17.50;;;;;;;;;;5071822;28;20641;-68
2021/01/27 13:12:14;;;;;;;27.30;17.67;;;;;;;;;;5074653;28;20232;-67
2021/01/27 13:14:39;;;;;;;22.97;16.03;;;;;;;;;;5077403;28;20196;-68
2021/01/27 13:17:04;;;;;;;25.60;16.90;;;;;;;;;;5071518;28;20203;-67
2021/01/27 13:19:30;;;;;;;26.70;16.63;;;;;;;;;;5070946;28;20260;-67
2021/01/27 13:21:55;;;;;;;31.93;17.20;;;;;;;;;;5072767;28;20196;-68
2021/01/27 13:24:20;;;;;;;24.60;15.85;;;;;;;;;;5070986;28;20196;-68
2021/01/27 13:26:46;;;;;;;27.43;15.33;;;;;;;;;;5073177;28;20180;-68
2021/01/27 13:29:11;;;;;;;26.53;15.83;;;;;;;;;;5068542;28;20177;-67
2021/01/27 13:31:36;;;;;;;27.37;15.93;;;;;;;;;;5069085;28;20173;-67
2021/01/27 13:34:02;;;;;;;27.60;16.47;;;;;;;;;;5066544;28;20296;-68
2021/01/27 13:36:27;;;;;;;21.07;15.67;;;;;;;;;;5077290;28;20172;-68
2021/01/27 13:38:52;;;;;;;32.43;14.73;;;;;;;;;;5084287;28;20199;-68
2021/01/27 13:41:17;;;;;;;25.67;16.80;;;;;;;;;;5080356;28;20279;-70
2021/01/27 13:43:43;;;;;;;27.43;15.33;;;;;;;;;;5083857;28;20242;-68
2021/01/27 13:46:08;;;;;;;29.13;15.47;;;;;;;;;;5072002;28;20212;-68
2021/01/27 13:48:33;;;;;;;23.33;14.17;;;;;;;;;;5082333;28;20217;-68
2021/01/27 13:50:58;;;;;;;23.47;15.40;;;;;;;;;;5073541;28;20180;-68
2021/01/27 13:53:24;;;;;;;27.93;15.37;;;;;;;;;;5076159;28;20290;-68
2021/01/27 13:55:49;;;;;;;25.00;14.93;;;;;;;;;;5076936;28;20229;-69
2021/01/27 13:58:14;;;;;;;29.20;16.23;;;;;;;;;;5072789;28;22271;-67
2021/01/27 14:00:39;;;;;;;27.00;15.33;;;;;;;;;;5071275;28;20185;-68
2021/01/27 14:03:05;;;;;;;26.17;17.17;;;;;;;;;;5072945;28;20237;-69
2021/01/27 14:05:30;;;;;;;29.77;15.50;;;;;;;;;;5071632;28;20605;-69
2021/01/27 14:07:56;;;;;;;25.83;15.37;;;;;;;;;;5076307;28;20615;-68
2021/01/27 14:10:23;;;;;;;22.37;14.40;;;;;;;;;;5072901;28;20188;-68
2021/01/27 14:12:48;;;;;;;27.13;17.27;;;;;;;;;;5080641;28;20230;-68
2021/01/27 14:15:13;;;;;;;26.93;15.23;;;;;;;;;;5073069;28;20181;-68
2021/01/27 14:17:39;;;;;;;22.30;15.70;;;;;;;;;;5079201;28;20204;-68
2021/01/27 14:20:05;;;;;;;25.70;16.53;;;;;;;;;;5077721;28;20247;-68
2021/01/27 14:22:30;;;;;;;27.23;16.13;;;;;;;;;;5081705;28;20538;-69
2021/01/27 14:24:55;;;;;;;24.77;15.73;;;;;;;;;;5079222;28;20212;-68
2021/01/27 14:27:21;;;;;;;24.27;15.30;;;;;;;;;;5077127;28;20197;-69
2021/01/27 14:29:46;;;;;;;25.20;16.30;;;;;;;;;;5080252;28;20189;-68
2021/01/27 14:32:12;;;;;;;23.10;14.90;;;;;;;;;;5074353;28;20219;-68
2021/01/27 14:34:37;;;;;;;25.57;15.37;;;;;;;;;;5072877;28;20205;-69
2021/01/27 14:37:02;;;;;;;24.97;15.27;;;;;;;;;;5071657;28;20184;-68
2021/01/27 14:39:27;;;;;;;26.17;15.43;;;;;;;;;;5071654;28;20180;-68